createdAt,value
2019-04-20T00:27:20.249Z,5.80
2019-04-20T00:29:36.277Z,6.00
2019-04-20T00:32:01.552Z,5.80
2019-04-20T00:34:27.895Z,6.20
2019-04-20T00:36:51.947Z,5.90
2019-04-20T00:39:23.681Z,6.00
2019-04-20T00:41:58.718Z,7.30
2019-04-20T00:44:31.628Z,6.00
2019-04-20T00:47:08.602Z,6.07
2019-04-20T00:49:38.830Z,5.80
2019-04-20T00:52:23.801Z,6.00
2019-04-20T00:59:43.060Z,6.35
2019-04-20T01:02:16.880Z,5.90
2019-04-20T01:07:24.145Z,5.90
2019-04-20T01:10:04.967Z,6.37
2019-04-20T01:12:35.625Z,6.45
2019-04-20T01:15:07.309Z,6.10
2019-04-20T01:17:33.697Z,5.85
2019-04-20T01:20:03.776Z,5.90
2019-04-20T01:22:40.289Z,5.75
2019-04-20T01:25:11.201Z,5.67
2019-04-20T01:27:42.519Z,5.93
2019-04-20T01:30:07.074Z,5.90
2019-04-20T01:32:34.255Z,6.63
2019-04-20T01:35:11.636Z,6.20
2019-04-20T01:37:36.235Z,5.70
2019-04-20T01:39:58.674Z,6.27
2019-04-20T01:44:50.774Z,6.07
2019-04-20T01:47:19.017Z,5.90
2019-04-20T01:49:47.790Z,5.77
2019-04-20T01:52:23.368Z,6.27
2019-04-20T01:55:20.542Z,6.40
2019-04-20T01:57:54.598Z,6.17
2019-04-20T02:00:31.566Z,6.40
2019-04-20T02:03:14.995Z,7.75
2019-04-20T02:05:53.124Z,7.30
2019-04-20T02:08:18.358Z,7.20
2019-04-20T02:10:49.069Z,7.57
2019-04-20T02:13:11.414Z,6.60
2019-04-20T02:15:44.713Z,6.65
2019-04-20T02:18:22.650Z,6.93
2019-04-20T02:20:54.576Z,6.70
2019-04-20T02:23:20.007Z,7.10
2019-04-20T02:25:36.045Z,7.97
2019-04-20T02:28:22.312Z,6.70
2019-04-20T02:31:18.444Z,6.70
2019-04-20T02:33:52.592Z,7.20
2019-04-20T02:36:25.040Z,7.53
2019-04-20T02:39:12.612Z,7.03
2019-04-20T02:41:27.825Z,8.83
2019-04-20T02:46:14.939Z,7.40
2019-04-20T02:48:52.982Z,8.00
2019-04-20T02:51:26.242Z,8.03
2019-04-20T02:54:05.715Z,7.70
2019-04-20T02:56:23.267Z,7.47
2019-04-20T02:58:50.261Z,7.70
2019-04-20T03:01:32.078Z,7.60
2019-04-20T03:03:46.942Z,7.70
2019-04-20T03:06:23.090Z,8.70
2019-04-20T03:09:05.003Z,7.50
2019-04-20T03:11:40.405Z,8.03
2019-04-20T03:13:59.361Z,8.37
2019-04-20T03:16:24.290Z,8.70
2019-04-20T03:18:53.521Z,8.40
2019-04-20T03:21:36.021Z,8.80
2019-04-20T03:24:09.978Z,8.50
2019-04-20T03:26:40.758Z,7.55
2019-04-20T03:29:40.899Z,8.23
2019-04-20T03:32:40.148Z,8.70
2019-04-20T03:35:01.024Z,8.30
2019-04-20T03:37:25.107Z,8.43
2019-04-20T03:39:37.613Z,8.10
2019-04-20T03:41:54.698Z,8.40
2019-04-20T03:44:24.413Z,8.10
2019-04-20T03:46:57.018Z,8.40
2019-04-20T03:49:42.507Z,8.47
2019-04-20T03:52:26.157Z,8.47
2019-04-20T03:55:09.598Z,9.10
2019-04-20T03:57:49.744Z,10.40
2019-04-20T04:00:30.532Z,8.50
2019-04-20T04:05:43.798Z,8.35
2019-04-20T04:08:09.016Z,9.17
2019-04-20T04:10:36.446Z,9.20
2019-04-20T04:13:09.892Z,8.80
2019-04-20T04:15:47.785Z,9.50
2019-04-20T04:18:17.158Z,8.80
2019-04-20T04:20:45.534Z,8.70
2019-04-20T04:23:25.039Z,9.33
2019-04-20T04:25:58.130Z,9.40
2019-04-20T04:28:22.546Z,9.60
2019-04-20T04:30:56.310Z,9.43
2019-04-20T04:35:53.390Z,10.65
2019-04-20T04:38:24.098Z,10.80
2019-04-20T04:41:06.513Z,11.43
2019-04-20T04:43:19.965Z,10.40
2019-04-20T04:45:31.731Z,10.80
2019-04-20T04:47:59.800Z,10.83
2019-04-20T04:50:31.092Z,10.20
2019-04-20T04:53:05.794Z,11.10
2019-04-20T04:55:36.318Z,10.37
2019-04-20T04:57:55.780Z,10.17
2019-04-20T05:00:28.176Z,10.57
2019-04-20T05:03:00.293Z,10.47
2019-04-20T05:06:06.570Z,10.50
2019-04-20T05:08:27.323Z,9.90
2019-04-20T05:10:50.002Z,11.10
2019-04-20T05:13:17.803Z,11.37
2019-04-20T05:16:00.215Z,11.00
2019-04-20T05:18:42.025Z,11.90
2019-04-20T05:21:17.381Z,11.47
2019-04-20T05:23:47.926Z,11.13
2019-04-20T05:26:34.499Z,10.90
2019-04-20T05:28:55.654Z,10.83
2019-04-20T05:31:18.522Z,10.90
2019-04-20T05:34:11.357Z,10.90
2019-04-20T05:36:40.478Z,11.85
2019-04-20T05:39:13.184Z,11.07
2019-04-20T05:41:32.848Z,11.00
2019-04-20T05:44:04.763Z,11.00
2019-04-20T05:46:53.265Z,11.13
2019-04-20T05:49:23.405Z,10.33
2019-04-20T05:51:47.734Z,11.10
2019-04-20T05:54:23.384Z,10.63
2019-04-20T05:56:46.867Z,11.13
2019-04-20T05:59:16.183Z,10.93
2019-04-20T06:01:53.122Z,11.00
2019-04-20T06:04:10.466Z,10.97
2019-04-20T06:06:44.365Z,9.83
2019-04-20T06:09:21.044Z,10.90
2019-04-20T06:11:56.280Z,10.90
2019-04-20T06:14:15.207Z,11.53
2019-04-20T06:17:01.956Z,11.03
2019-04-20T06:19:36.970Z,10.50
2019-04-20T06:22:14.859Z,10.70
2019-04-20T06:25:12.659Z,10.40
2019-04-20T06:27:29.991Z,9.53
2019-04-20T06:29:57.745Z,10.20
2019-04-20T06:33:10.144Z,9.73
2019-04-20T06:35:56.346Z,9.40
2019-04-20T06:38:10.613Z,9.20
2019-04-20T06:40:52.685Z,10.05
2019-04-20T06:43:08.548Z,9.90
2019-04-20T06:45:36.313Z,10.70
2019-04-20T06:48:01.028Z,8.90
2019-04-20T06:50:29.260Z,9.40
2019-04-20T06:53:28.638Z,9.13
2019-04-20T06:56:06.679Z,9.10
2019-04-20T06:58:36.375Z,9.53
2019-04-20T07:00:46.438Z,9.13
2019-04-20T07:03:39.755Z,8.67
2019-04-20T07:05:55.235Z,8.40
2019-04-20T07:08:34.675Z,8.47
2019-04-20T07:10:54.546Z,8.70
2019-04-20T07:13:14.328Z,8.13
2019-04-20T07:15:52.031Z,8.50
2019-04-20T07:18:31.996Z,7.60
2019-04-20T07:20:59.576Z,7.55
2019-04-20T07:23:37.024Z,9.57
2019-04-20T07:26:06.686Z,7.47
2019-04-20T07:28:32.868Z,7.60
2019-04-20T07:30:56.924Z,7.70
2019-04-20T07:33:28.465Z,9.07
2019-04-20T07:35:57.693Z,8.97
2019-04-20T07:40:53.733Z,7.43
2019-04-20T07:43:25.536Z,7.20
2019-04-20T07:45:50.934Z,6.50
2019-04-20T07:48:20.633Z,7.00
2019-04-20T07:50:40.419Z,7.00
2019-04-20T07:53:18.530Z,7.70
2019-04-20T07:56:04.925Z,7.50
2019-04-20T07:58:12.162Z,7.20
2019-04-20T08:01:02.586Z,8.20
2019-04-20T08:03:42.806Z,6.30
2019-04-20T08:06:01.467Z,7.07
2019-04-20T08:08:32.706Z,7.17
2019-04-20T08:11:10.304Z,6.57
2019-04-20T08:16:06.719Z,6.93
2019-04-20T08:18:45.730Z,8.90
2019-04-20T08:21:06.372Z,6.37
2019-04-20T08:23:34.423Z,6.50
2019-04-20T08:25:52.263Z,7.13
2019-04-20T08:28:29.203Z,6.53
2019-04-20T08:31:26.912Z,7.17
2019-04-20T08:34:15.064Z,6.75
2019-04-20T08:36:39.237Z,6.73
2019-04-20T08:41:30.155Z,7.20
2019-04-20T08:44:09.435Z,6.70
2019-04-20T08:46:34.974Z,6.63
2019-04-20T08:49:02.930Z,6.17
2019-04-20T08:51:33.247Z,7.53
2019-04-20T08:53:56.980Z,6.40
2019-04-20T08:56:22.123Z,5.70
2019-04-20T08:58:41.323Z,6.43
2019-04-20T09:01:14.086Z,7.57
2019-04-20T09:03:49.639Z,5.70
2019-04-20T09:06:24.735Z,6.37
2019-04-20T09:08:46.548Z,6.10
2019-04-20T09:11:21.935Z,6.00
2019-04-20T09:13:43.151Z,6.60
2019-04-20T09:16:04.860Z,6.20
2019-04-20T09:18:43.238Z,6.40
2019-04-20T09:21:15.146Z,5.83
2019-04-20T09:23:50.754Z,6.20
2019-04-20T09:26:20.568Z,5.90
2019-04-20T09:28:54.405Z,5.77
2019-04-20T09:31:50.221Z,6.35
2019-04-20T09:34:33.665Z,6.50
2019-04-20T09:37:27.848Z,6.20
2019-04-20T09:40:02.987Z,6.10
2019-04-20T09:42:32.422Z,5.70
2019-04-20T09:45:02.822Z,6.37
2019-04-20T09:47:36.988Z,6.20
2019-04-20T09:50:09.340Z,6.10
2019-04-20T09:52:39.514Z,6.53
2019-04-20T09:55:10.519Z,5.97
2019-04-20T09:57:46.698Z,6.90
2019-04-20T10:00:12.080Z,7.07
2019-04-20T10:02:28.152Z,6.23
2019-04-20T10:04:53.475Z,6.90
2019-04-20T10:07:24.220Z,5.45
2019-04-20T10:09:51.687Z,6.10
2019-04-20T10:12:19.780Z,5.80
2019-04-20T10:14:47.379Z,6.20
2019-04-20T10:17:15.885Z,5.97
2019-04-20T10:19:46.165Z,6.90
2019-04-20T10:22:13.066Z,5.60
2019-04-20T10:24:40.619Z,5.17
2019-04-20T10:27:08.393Z,5.40
2019-04-20T10:29:35.842Z,5.50
2019-04-20T10:32:08.817Z,6.63
2019-04-20T10:34:32.763Z,5.80
2019-04-20T10:37:20.069Z,5.23
2019-04-20T10:39:48.743Z,5.90
2019-04-20T10:42:16.552Z,5.40
2019-04-20T10:44:45.167Z,5.10
2019-04-20T10:47:13.042Z,5.57
2019-04-20T10:49:40.903Z,6.00
2019-04-20T10:52:09.504Z,5.90
2019-04-20T10:54:38.418Z,4.60
2019-04-20T10:57:06.137Z,5.00
2019-04-20T10:59:33.975Z,6.40
2019-04-20T11:02:03.586Z,4.70
2019-04-20T11:04:32.614Z,4.90
2019-04-20T11:07:02.840Z,4.87
2019-04-20T11:09:34.266Z,6.47
2019-04-20T11:12:10.424Z,4.70
2019-04-20T11:14:41.946Z,4.47
2019-04-20T11:17:10.017Z,5.20
2019-04-20T11:19:37.505Z,5.20
2019-04-20T11:22:06.213Z,4.80
2019-04-20T11:24:34.473Z,4.70
2019-04-20T11:27:02.462Z,4.80
2019-04-20T11:29:29.850Z,17.53
2019-04-20T11:31:58.154Z,28.70
2019-04-20T11:34:31.107Z,28.80
2019-04-20T11:36:57.253Z,6.80
2019-04-20T11:39:25.605Z,5.10
2019-04-20T11:41:53.875Z,11.87
2019-04-20T11:44:21.183Z,6.27
2019-04-20T11:46:48.523Z,7.23
2019-04-20T11:49:15.730Z,9.17
2019-04-20T11:51:43.504Z,5.55
2019-04-20T11:54:10.903Z,6.47
2019-04-20T11:59:07.254Z,5.07
2019-04-20T12:02:02.004Z,6.97
2019-04-20T12:04:42.125Z,5.10
2019-04-20T12:07:03.017Z,10.15
2019-04-20T12:09:31.413Z,4.77
2019-04-20T12:14:28.438Z,6.00
2019-04-20T12:16:55.737Z,6.70
2019-04-20T12:19:22.962Z,5.53
2019-04-20T12:21:50.207Z,5.80
2019-04-20T12:24:18.453Z,6.70
2019-04-20T12:26:46.982Z,8.20
2019-04-20T12:29:14.203Z,4.85
2019-04-20T12:31:44.309Z,6.20
2019-04-20T12:34:10.584Z,15.30
2019-04-20T12:36:39.375Z,12.40
2019-04-20T12:39:08.914Z,6.27
2019-04-20T12:41:43.435Z,5.37
2019-04-20T12:44:05.847Z,5.30
2019-04-20T12:46:34.044Z,5.30
2019-04-20T12:49:01.846Z,5.10
2019-04-20T12:51:33.509Z,5.17
2019-04-20T12:53:58.522Z,5.20
2019-04-20T12:56:26.555Z,5.53
2019-04-20T12:58:53.845Z,7.90
2019-04-20T13:01:22.836Z,4.63
2019-04-20T13:08:51.201Z,7.20
2019-04-20T13:11:22.542Z,4.80
2019-04-20T13:14:20.090Z,4.50
2019-04-20T13:16:49.035Z,7.20
2019-04-20T13:19:17.247Z,5.30
2019-04-20T13:21:45.131Z,4.80
2019-04-20T13:24:13.546Z,4.35
2019-04-20T13:26:40.773Z,4.90
2019-04-20T13:29:08.781Z,3.87
2019-04-20T13:31:37.724Z,4.23
2019-04-20T13:34:05.585Z,7.20
2019-04-20T13:36:34.468Z,3.60
2019-04-20T13:39:02.325Z,4.50
2019-04-20T13:44:01.278Z,6.10
2019-04-20T13:46:29.184Z,6.40
2019-04-20T13:48:57.317Z,4.57
2019-04-20T13:51:24.624Z,4.95
2019-04-20T13:53:53.124Z,5.67
2019-04-20T13:56:22.098Z,4.43
2019-04-20T13:58:54.151Z,4.67
2019-04-20T14:01:28.957Z,5.53
2019-04-20T14:04:10.663Z,4.40
2019-04-20T14:06:39.442Z,5.20
2019-04-20T14:09:08.058Z,5.30
2019-04-20T14:11:35.750Z,4.27
2019-04-20T14:14:06.468Z,4.75
2019-04-20T14:16:32.881Z,6.30
2019-04-20T14:19:00.864Z,4.90
2019-04-20T14:21:28.234Z,4.90
2019-04-20T14:23:55.462Z,4.40
2019-04-20T14:26:23.078Z,4.37
2019-04-20T14:28:51.283Z,7.00
2019-04-20T14:33:46.808Z,7.90
2019-04-20T14:36:14.877Z,8.47
2019-04-20T14:41:12.602Z,8.07
2019-04-20T14:43:40.017Z,5.77
2019-04-20T14:46:08.416Z,6.20
2019-04-20T14:48:36.613Z,7.10
2019-04-20T14:51:05.598Z,11.90
2019-04-20T14:53:33.641Z,6.50
2019-04-20T14:56:01.858Z,9.53
2019-04-20T14:58:43.402Z,6.97
2019-04-20T15:01:32.548Z,6.00
2019-04-20T15:04:06.882Z,6.00
2019-04-20T15:06:29.766Z,7.15
2019-04-20T15:08:58.624Z,6.90
2019-04-20T15:11:27.128Z,7.50
2019-04-20T15:13:54.774Z,5.80
2019-04-20T15:16:22.452Z,6.70
2019-04-20T15:19:09.740Z,5.47
2019-04-20T15:24:05.923Z,5.90
2019-04-20T15:26:34.258Z,5.60
2019-04-20T15:29:02.169Z,5.10
2019-04-20T15:31:30.096Z,7.93
2019-04-20T15:33:57.314Z,6.67
2019-04-20T15:36:24.422Z,6.05
2019-04-20T15:38:53.252Z,6.70
2019-04-20T15:41:21.240Z,6.55
2019-04-20T15:43:49.109Z,7.73
2019-04-20T15:46:17.220Z,6.00
2019-04-20T15:48:46.042Z,5.60
2019-04-20T15:51:14.108Z,8.60
2019-04-20T15:53:41.832Z,6.53
2019-04-20T15:56:11.542Z,5.40
2019-04-20T15:58:38.703Z,5.50
2019-04-20T16:01:08.307Z,5.10
2019-04-20T16:06:17.096Z,5.43
2019-04-20T16:08:50.302Z,6.25
2019-04-20T16:11:17.722Z,5.23
2019-04-20T16:13:50.061Z,6.20
2019-04-20T16:16:14.347Z,5.33
2019-04-20T16:21:14.325Z,5.83
2019-04-20T16:23:43.431Z,5.65
2019-04-20T16:26:15.543Z,5.10
2019-04-20T16:28:43.735Z,6.10
2019-04-20T16:31:13.538Z,5.73
2019-04-20T16:36:08.242Z,5.50
2019-04-20T16:38:37.206Z,5.10
2019-04-20T16:41:06.429Z,8.27
2019-04-20T16:43:38.116Z,5.77
2019-04-20T16:48:30.634Z,5.50
2019-04-20T16:53:26.828Z,5.10
2019-04-20T16:55:54.715Z,5.25
2019-04-20T16:58:21.930Z,6.00
2019-04-20T17:03:17.441Z,5.90
2019-04-20T17:05:45.328Z,5.50
2019-04-20T17:08:13.699Z,5.10
2019-04-20T17:10:41.038Z,5.67
2019-04-20T17:13:09.359Z,5.30
2019-04-20T17:15:37.318Z,5.90
2019-04-20T17:18:05.736Z,5.40
2019-04-20T17:20:34.687Z,5.00
2019-04-20T17:23:03.827Z,5.40
2019-04-20T17:25:32.281Z,5.10
2019-04-20T17:28:25.048Z,6.10
2019-04-20T17:31:21.912Z,5.30
2019-04-20T17:34:01.477Z,5.70
2019-04-20T17:36:27.190Z,5.43
2019-04-20T17:38:55.899Z,5.40
2019-04-20T17:41:42.958Z,5.20
2019-04-20T17:44:10.005Z,4.90
2019-04-20T17:46:37.144Z,5.80
2019-04-20T17:49:03.242Z,5.50
2019-04-20T17:51:40.018Z,5.20
2019-04-20T17:54:08.413Z,5.40
2019-04-20T17:56:40.385Z,5.33
2019-04-20T17:59:08.126Z,5.77
2019-04-20T18:05:09.928Z,6.20
2019-04-20T18:07:36.672Z,5.95
2019-04-20T18:10:08.167Z,5.03
2019-04-20T18:12:23.132Z,5.55
2019-04-20T18:14:59.646Z,5.50
2019-04-20T18:17:50.044Z,5.30
2019-04-20T18:20:07.233Z,5.50
2019-04-20T18:22:38.374Z,5.90
2019-04-20T18:25:27.421Z,5.60
2019-04-20T18:27:54.975Z,6.43
2019-04-20T18:30:26.277Z,6.30
2019-04-20T18:32:43.192Z,7.10
2019-04-20T18:35:18.181Z,7.50
2019-04-20T18:37:52.471Z,7.75
2019-04-20T18:40:28.043Z,8.07
2019-04-20T18:45:29.669Z,8.30
2019-04-20T18:48:00.593Z,8.60
2019-04-20T18:50:22.151Z,8.60
2019-04-20T18:52:43.013Z,9.15
2019-04-20T18:55:15.876Z,7.95
2019-04-20T18:57:40.189Z,9.95
2019-04-20T19:00:17.990Z,9.97
2019-04-20T19:02:44.569Z,10.03
2019-04-20T19:05:09.544Z,10.40
2019-04-20T19:10:16.411Z,9.70
2019-04-20T19:12:49.360Z,9.15
2019-04-20T19:18:17.245Z,10.15
2019-04-20T19:20:37.076Z,9.45
2019-04-20T19:23:04.324Z,10.40
2019-04-20T19:25:36.774Z,10.90
2019-04-20T19:28:02.904Z,10.70
2019-04-20T19:33:14.556Z,10.70
2019-04-20T19:35:40.465Z,10.33
2019-04-20T19:38:07.814Z,10.20
2019-04-20T19:40:38.503Z,10.27
2019-04-20T19:43:10.949Z,10.75
2019-04-20T19:45:46.409Z,10.30
2019-04-20T19:48:09.333Z,10.07
2019-04-20T19:50:50.919Z,10.80
2019-04-20T19:53:18.686Z,9.93
2019-04-20T19:58:02.538Z,11.40
2019-04-20T20:02:50.242Z,11.40
2019-04-20T20:05:19.294Z,11.33
2019-04-20T20:07:52.381Z,10.90
2019-04-20T20:10:16.692Z,11.25
2019-04-20T20:12:48.407Z,11.87
2019-04-20T20:15:22.291Z,12.60
2019-04-20T20:18:00.349Z,11.07
2019-04-20T20:20:35.858Z,12.50
2019-04-20T20:22:48.154Z,12.87
2019-04-20T20:25:12.681Z,12.85
2019-04-20T20:30:24.391Z,12.57
2019-04-20T20:33:08.767Z,12.27
2019-04-20T20:35:23.047Z,12.83
2019-04-20T20:40:21.157Z,12.90
2019-04-20T20:42:58.070Z,12.67
2019-04-20T20:45:22.685Z,12.57
2019-04-20T20:48:05.007Z,13.43
2019-04-20T20:50:34.716Z,13.50
2019-04-20T20:52:57.828Z,13.03
2019-04-20T20:55:24.700Z,13.67
2019-04-20T20:57:49.454Z,13.60
2019-04-20T21:00:23.872Z,13.90
2019-04-20T21:05:09.229Z,14.63
2019-04-20T21:07:36.950Z,13.50
2019-04-20T21:12:31.648Z,14.00
2019-04-20T21:15:00.372Z,15.20
2019-04-20T21:17:40.755Z,14.25
2019-04-20T21:20:14.245Z,14.43
2019-04-20T21:22:44.643Z,13.20
2019-04-20T21:24:56.888Z,14.60
2019-04-20T21:27:25.749Z,15.13
2019-04-20T21:29:56.380Z,14.60
2019-04-20T21:32:23.683Z,14.50
2019-04-20T21:34:55.642Z,14.97
2019-04-20T21:37:24.033Z,14.35
2019-04-20T21:39:55.385Z,15.10
2019-04-20T21:42:21.656Z,14.37
2019-04-20T21:44:50.344Z,14.80
2019-04-20T21:47:24.740Z,15.17
2019-04-20T21:49:54.088Z,14.65
2019-04-20T21:52:22.804Z,14.27
2019-04-20T21:54:43.901Z,14.90
2019-04-20T21:57:12.869Z,15.57
2019-04-20T21:59:44.957Z,14.70
2019-04-20T22:02:17.214Z,15.67
2019-04-20T22:04:39.670Z,16.10
2019-04-20T22:07:08.051Z,15.90
2019-04-20T22:09:41.405Z,17.10
2019-04-20T22:12:05.754Z,16.00
2019-04-20T22:17:03.624Z,16.30
2019-04-20T22:19:41.074Z,15.67
2019-04-20T22:22:11.945Z,15.50
2019-04-20T22:24:47.842Z,15.73
2019-04-20T22:27:06.304Z,15.35
2019-04-20T22:29:27.987Z,15.85
2019-04-20T22:32:01.426Z,16.00
2019-04-20T22:34:27.903Z,16.00
2019-04-20T22:36:53.854Z,14.40
2019-04-20T22:39:31.974Z,15.20
2019-04-20T22:41:59.077Z,15.33
2019-04-20T22:44:26.284Z,14.90
2019-04-20T22:46:52.172Z,14.93
2019-04-20T22:49:38.839Z,16.30
2019-04-20T22:51:58.848Z,15.65
2019-04-20T22:54:36.433Z,15.73
2019-04-20T23:01:51.454Z,16.55
2019-04-20T23:04:14.890Z,16.47
2019-04-20T23:06:47.735Z,16.60
2019-04-20T23:09:14.629Z,16.07
2019-04-20T23:11:42.119Z,15.27
2019-04-20T23:14:10.810Z,17.00
2019-04-20T23:16:44.579Z,17.30
2019-04-20T23:19:07.995Z,16.50
2019-04-20T23:21:40.065Z,17.20
2019-04-20T23:24:09.266Z,16.87
2019-04-20T23:26:39.787Z,17.90
2019-04-20T23:29:03.402Z,17.83
2019-04-20T23:31:32.172Z,17.30
2019-04-20T23:34:01.380Z,18.07
2019-04-20T23:36:36.526Z,17.85
2019-04-20T23:39:01.278Z,18.15
2019-04-20T23:41:28.011Z,17.83
2019-04-20T23:44:04.006Z,17.90
2019-04-20T23:46:37.432Z,17.63
2019-04-20T23:54:23.012Z,18.30
2019-04-20T23:56:45.849Z,17.43
2019-04-20T23:59:14.707Z,17.80
